createdAt,value
2022-08-30T00:02:37.020Z,1.45
2022-08-30T00:05:25.717Z,1.42
2022-08-30T00:08:13.962Z,1.55
2022-08-30T00:11:02.209Z,1.75
2022-08-30T00:13:52.505Z,1.35
2022-08-30T00:16:39.933Z,1.10
2022-08-30T00:19:29.216Z,1.60
2022-08-30T00:25:24.734Z,1.50
2022-08-30T00:45:18.001Z,1.35
2022-08-30T00:48:13.604Z,1.35
2022-08-30T00:51:08.966Z,1.52
2022-08-30T00:53:58.676Z,1.17
2022-08-30T00:56:48.271Z,1.67
2022-08-30T00:59:36.483Z,1.60
2022-08-30T01:02:26.568Z,1.42
2022-08-30T01:08:21.561Z,1.73
2022-08-30T01:14:17.408Z,1.42
2022-08-30T01:17:05.003Z,1.60
2022-08-30T01:19:59.773Z,1.70
2022-08-30T01:22:59.253Z,1.60
2022-08-30T01:25:50.822Z,1.50
2022-08-30T01:28:38.469Z,1.45
2022-08-30T01:31:27.415Z,1.40
2022-08-30T01:37:33.171Z,1.50
2022-08-30T01:40:21.837Z,1.38
2022-08-30T01:43:09.861Z,1.30
2022-08-30T01:49:01.826Z,1.55
2022-08-30T01:51:49.509Z,1.30
2022-08-30T01:54:49.227Z,1.60
2022-08-30T01:57:38.672Z,1.50
2022-08-30T02:00:25.728Z,1.58
2022-08-30T02:03:14.196Z,1.27
2022-08-30T02:06:05.525Z,1.13
2022-08-30T02:08:53.954Z,1.45
2022-08-30T02:11:41.094Z,1.67
2022-08-30T02:14:30.146Z,1.70
2022-08-30T02:17:19.602Z,1.30
2022-08-30T02:20:08.460Z,1.48
2022-08-30T02:23:01.428Z,1.30
2022-08-30T02:28:55.770Z,1.45
2022-08-30T02:38:02.124Z,1.58
2022-08-30T02:41:00.951Z,1.40
2022-08-30T02:43:49.450Z,1.40
2022-08-30T02:46:36.644Z,2.15
2022-08-30T02:49:33.864Z,1.65
2022-08-30T02:55:26.758Z,1.48
2022-08-30T03:10:38.807Z,1.70
2022-08-30T03:16:32.229Z,1.38
2022-08-30T03:22:26.095Z,1.23
2022-08-30T03:25:14.687Z,1.65
2022-08-30T03:28:01.733Z,1.40
2022-08-30T03:30:49.341Z,1.60
2022-08-30T03:33:36.421Z,1.73
2022-08-30T03:39:29.584Z,1.42
2022-08-30T03:42:16.410Z,1.85
2022-08-30T03:45:05.251Z,1.88
2022-08-30T03:47:52.305Z,1.70
2022-08-30T03:50:40.743Z,2.25
2022-08-30T03:53:27.517Z,1.55
2022-08-30T03:56:16.466Z,1.50
2022-08-30T03:59:03.782Z,1.77
2022-08-30T04:01:50.671Z,1.90
2022-08-30T04:04:37.965Z,1.70
2022-08-30T04:07:25.082Z,1.65
2022-08-30T04:10:12.632Z,1.80
2022-08-30T04:13:02.947Z,1.80
2022-08-30T04:15:50.772Z,2.20
2022-08-30T04:18:38.838Z,1.80
2022-08-30T04:21:25.923Z,2.08
2022-08-30T04:24:13.878Z,1.83
2022-08-30T04:27:02.293Z,1.77
2022-08-30T04:29:53.024Z,1.75
2022-08-30T04:32:45.249Z,1.85
2022-08-30T04:35:32.753Z,1.98
2022-08-30T04:38:22.349Z,1.88
2022-08-30T04:41:15.679Z,1.98
2022-08-30T04:44:05.144Z,1.80
2022-08-30T04:46:55.319Z,1.77
2022-08-30T04:52:48.457Z,1.90
2022-08-30T04:55:37.148Z,1.65
2022-08-30T04:58:25.472Z,2.03
2022-08-30T05:01:15.110Z,1.83
2022-08-30T05:07:13.328Z,1.83
2022-08-30T05:13:07.747Z,2.10
2022-08-30T05:15:55.861Z,1.77
2022-08-30T05:18:43.700Z,2.00
2022-08-30T05:21:32.043Z,1.65
2022-08-30T05:24:20.228Z,2.67
2022-08-30T05:27:08.671Z,1.80
2022-08-30T05:29:58.431Z,2.00
2022-08-30T05:32:46.361Z,2.15
2022-08-30T05:35:36.863Z,2.03
2022-08-30T05:38:27.134Z,1.90
2022-08-30T05:44:04.157Z,1.90
2022-08-30T05:46:51.450Z,1.80
2022-08-30T05:49:38.004Z,1.95
2022-08-30T05:52:30.434Z,2.30
2022-08-30T05:55:21.237Z,1.90
2022-08-30T05:58:08.272Z,2.03
2022-08-30T06:00:55.769Z,1.95
2022-08-30T06:03:45.088Z,1.50
2022-08-30T06:09:40.313Z,1.98
2022-08-30T06:12:28.544Z,1.90
2022-08-30T06:15:17.363Z,1.35
2022-08-30T06:21:23.943Z,1.35
2022-08-30T06:27:20.292Z,1.70
2022-08-30T06:33:17.497Z,1.42
2022-08-30T06:36:06.003Z,1.65
2022-08-30T06:38:54.539Z,1.60
2022-08-30T06:41:42.591Z,1.50
2022-08-30T06:48:14.871Z,1.45
2022-08-30T06:51:15.009Z,1.25
2022-08-30T06:56:59.075Z,1.35
2022-08-30T06:59:48.746Z,1.70
2022-08-30T07:02:37.561Z,1.70
2022-08-30T07:05:25.382Z,1.42
2022-08-30T07:08:14.317Z,2.10
2022-08-30T07:11:01.149Z,1.88
2022-08-30T07:22:58.879Z,1.50
2022-08-30T07:25:56.917Z,1.27
2022-08-30T07:32:38.473Z,1.40
2022-08-30T07:53:20.338Z,1.67
2022-08-30T07:56:10.935Z,1.70
2022-08-30T07:58:58.614Z,1.77
2022-08-30T08:01:48.844Z,1.85
2022-08-30T08:04:40.051Z,1.98
2022-08-30T08:11:01.152Z,1.50
2022-08-30T08:13:53.521Z,1.58
2022-08-30T08:16:43.339Z,1.52
2022-08-30T08:19:32.682Z,1.48
2022-08-30T08:25:55.080Z,1.40
2022-08-30T08:28:42.287Z,0.95
2022-08-30T08:31:34.055Z,1.20
2022-08-30T08:34:36.458Z,1.33
2022-08-30T08:57:57.163Z,1.02
2022-08-30T09:00:52.154Z,0.90
2022-08-30T09:03:39.561Z,1.00
2022-08-30T09:06:49.061Z,1.10
2022-08-30T09:21:42.588Z,0.85
2022-08-30T09:34:45.033Z,0.98
2022-08-30T09:45:49.729Z,1.10
2022-08-30T10:46:41.496Z,1.20
2022-08-30T11:27:00.736Z,1.35
2022-08-30T11:29:56.757Z,1.00
2022-08-30T11:33:02.880Z,0.98
2022-08-30T11:36:04.193Z,1.00
2022-08-30T11:39:46.929Z,1.23
2022-08-30T11:46:55.373Z,1.25
2022-08-30T11:54:40.089Z,1.42
2022-08-30T11:58:20.366Z,1.13
2022-08-30T12:09:02.253Z,1.17
2022-08-30T12:12:00.330Z,1.00
2022-08-30T12:14:54.693Z,0.90
2022-08-30T12:18:20.185Z,1.10
2022-08-30T12:21:27.177Z,1.55
2022-08-30T12:24:21.442Z,0.90
2022-08-30T12:27:24.501Z,0.80
2022-08-30T12:30:14.291Z,1.30
2022-08-30T12:36:23.745Z,1.30
2022-08-30T12:42:22.797Z,1.20
2022-08-30T12:52:31.428Z,1.20
2022-08-30T12:59:03.515Z,1.27
2022-08-30T13:01:56.326Z,1.23
2022-08-30T13:04:58.820Z,1.05
2022-08-30T13:07:54.489Z,0.90
2022-08-30T13:11:32.644Z,0.98
2022-08-30T13:17:45.204Z,1.10
2022-08-30T13:20:32.610Z,0.90
2022-08-30T13:24:08.782Z,1.00
2022-08-30T13:27:02.059Z,1.08
2022-08-30T13:30:56.549Z,0.90
2022-08-30T14:11:33.965Z,1.20
2022-08-30T14:15:06.091Z,1.20
2022-08-30T14:18:11.755Z,1.20
2022-08-30T14:21:18.173Z,1.20
2022-08-30T14:24:20.092Z,1.08
2022-08-30T14:27:09.162Z,1.27
2022-08-30T14:34:37.344Z,1.08
2022-08-30T14:37:24.502Z,1.40
2022-08-30T14:40:15.325Z,0.95
2022-08-30T14:43:02.098Z,1.20
2022-08-30T14:49:02.435Z,1.08
2022-08-30T14:54:55.604Z,1.13
2022-08-30T14:57:51.861Z,0.98
2022-08-30T15:00:40.583Z,1.25
2022-08-30T15:03:29.188Z,1.00
2022-08-30T15:09:11.719Z,1.10
2022-08-30T15:12:03.544Z,1.08
2022-08-30T15:14:51.110Z,0.88
2022-08-30T15:17:37.975Z,0.90
2022-08-30T15:20:27.632Z,1.10
2022-08-30T15:23:16.869Z,1.00
2022-08-30T15:26:08.120Z,1.42
2022-08-30T15:28:56.395Z,0.70
2022-08-30T15:31:45.019Z,0.90
2022-08-30T15:34:32.626Z,0.93
2022-08-30T15:37:23.072Z,1.05
2022-08-30T15:40:11.318Z,0.63
2022-08-30T15:42:59.960Z,1.00
2022-08-30T15:45:48.015Z,0.90
2022-08-30T15:52:07.935Z,1.00
2022-08-30T15:54:55.571Z,1.00
2022-08-30T15:57:43.025Z,0.85
2022-08-30T16:00:31.342Z,0.80
2022-08-30T16:03:18.638Z,0.82
2022-08-30T16:06:12.673Z,1.23
2022-08-30T16:09:01.172Z,0.90
2022-08-30T16:11:50.482Z,0.98
2022-08-30T16:14:43.842Z,0.60
2022-08-30T16:17:33.065Z,0.70
2022-08-30T16:20:20.425Z,0.60
2022-08-30T16:23:15.629Z,0.90
2022-08-30T16:26:04.279Z,0.90
2022-08-30T16:28:52.726Z,0.50
2022-08-30T16:34:49.911Z,0.75
2022-08-30T16:37:38.545Z,0.90
2022-08-30T16:40:27.154Z,0.40
2022-08-30T16:43:15.811Z,0.73
2022-08-30T16:46:03.406Z,0.50
2022-08-30T16:48:50.050Z,0.70
2022-08-30T16:51:39.533Z,0.57
2022-08-30T16:54:27.296Z,0.70
2022-08-30T16:57:14.122Z,0.50
2022-08-30T17:06:13.317Z,0.45
2022-08-30T17:09:01.956Z,0.50
2022-08-30T17:11:50.399Z,0.50
2022-08-30T17:14:39.380Z,0.90
2022-08-30T17:17:30.199Z,0.65
2022-08-30T17:20:18.912Z,0.55
2022-08-30T17:23:06.559Z,0.60
2022-08-30T17:25:56.863Z,0.80
2022-08-30T17:28:44.289Z,0.52
2022-08-30T17:31:32.154Z,0.70
2022-08-30T17:34:24.129Z,0.60
2022-08-30T17:37:14.047Z,0.90
2022-08-30T18:02:43.035Z,0.60
